createdAt,value
2019-03-25T00:01:39.704Z,69.14
2019-03-25T00:04:08.934Z,69.09
2019-03-25T00:06:38.421Z,69.19
2019-03-25T00:09:08.661Z,69.10
2019-03-25T00:11:38.208Z,69.21
2019-03-25T00:14:07.642Z,69.33
2019-03-25T00:16:36.946Z,69.36
2019-03-25T00:19:06.538Z,69.06
2019-03-25T00:21:36.008Z,69.03
2019-03-25T00:24:06.143Z,69.11
2019-03-25T00:26:35.656Z,69.08
2019-03-25T00:29:05.220Z,68.83
2019-03-25T00:31:34.457Z,68.59
2019-03-25T00:34:03.671Z,68.41
2019-03-25T00:36:32.924Z,68.02
2019-03-25T00:39:02.152Z,67.70
2019-03-25T00:41:31.679Z,68.07
2019-03-25T00:44:04.150Z,67.91
2019-03-25T00:46:33.405Z,67.75
2019-03-25T00:49:02.881Z,67.69
2019-03-25T00:51:32.119Z,67.55
2019-03-25T00:54:01.656Z,67.81
2019-03-25T00:56:30.913Z,67.49
2019-03-25T00:59:00.104Z,67.77
2019-03-25T01:01:29.404Z,68.25
2019-03-25T01:03:58.706Z,68.15
2019-03-25T01:06:27.908Z,67.82
2019-03-25T01:08:57.380Z,67.96
2019-03-25T01:11:27.005Z,68.14
2019-03-25T01:13:56.253Z,67.86
2019-03-25T01:16:25.726Z,67.88
2019-03-25T01:18:54.962Z,67.48
2019-03-25T01:21:24.277Z,67.29
2019-03-25T01:23:53.499Z,66.89
2019-03-25T01:26:23.085Z,67.01
2019-03-25T01:28:52.299Z,66.79
2019-03-25T01:31:21.825Z,66.42
2019-03-25T01:33:51.061Z,66.23
2019-03-25T01:36:20.264Z,66.04
2019-03-25T01:38:49.489Z,65.98
2019-03-25T01:41:19.211Z,65.74
2019-03-25T01:43:48.683Z,65.93
2019-03-25T01:46:18.137Z,65.83
2019-03-25T01:48:47.642Z,65.54
2019-03-25T01:51:17.145Z,65.50
2019-03-25T01:53:46.460Z,64.95
2019-03-25T01:56:15.676Z,64.97
2019-03-25T01:58:44.974Z,65.07
2019-03-25T02:01:14.446Z,65.21
2019-03-25T02:03:43.671Z,65.89
2019-03-25T02:06:12.957Z,64.95
2019-03-25T02:08:42.178Z,65.39
2019-03-25T02:11:11.969Z,66.03
2019-03-25T02:13:41.720Z,65.88
2019-03-25T02:16:10.998Z,65.45
2019-03-25T02:18:40.466Z,65.98
2019-03-25T02:21:10.205Z,65.73
2019-03-25T02:23:39.683Z,65.98
2019-03-25T02:26:09.199Z,66.37
2019-03-25T02:28:38.407Z,66.26
2019-03-25T02:31:10.197Z,66.68
2019-03-25T02:33:39.668Z,66.90
2019-03-25T02:36:09.160Z,67.15
2019-03-25T02:38:38.634Z,67.45
2019-03-25T02:41:07.881Z,69.58
2019-03-25T02:43:37.139Z,72.60
2019-03-25T02:46:06.367Z,72.56
2019-03-25T02:48:35.934Z,73.70
2019-03-25T02:51:05.145Z,73.15
2019-03-25T02:53:34.660Z,74.12
2019-03-25T02:56:04.269Z,74.10
2019-03-25T02:58:33.479Z,74.83
2019-03-25T03:01:02.708Z,74.88
2019-03-25T03:03:32.481Z,75.36
2019-03-25T03:06:01.983Z,75.04
2019-03-25T03:08:31.481Z,75.59
2019-03-25T03:11:01.070Z,74.69
2019-03-25T03:13:30.293Z,73.97
2019-03-25T03:15:59.792Z,73.74
2019-03-25T03:18:29.296Z,73.91
2019-03-25T03:20:58.803Z,73.94
2019-03-25T03:23:28.041Z,73.67
2019-03-25T03:25:58.435Z,72.98
2019-03-25T03:28:27.984Z,72.81
2019-03-25T03:30:57.220Z,72.71
2019-03-25T03:33:26.815Z,72.62
2019-03-25T03:35:56.026Z,72.56
2019-03-25T03:38:25.606Z,72.25
2019-03-25T03:40:55.024Z,72.55
2019-03-25T03:43:24.763Z,72.47
2019-03-25T03:45:54.002Z,72.66
2019-03-25T03:48:23.580Z,72.62
2019-03-25T03:50:52.936Z,72.95
2019-03-25T03:53:22.248Z,72.88
2019-03-25T03:55:53.286Z,74.21
2019-03-25T03:58:42.936Z,77.28
2019-03-25T04:01:12.157Z,79.61
2019-03-25T04:03:41.364Z,81.40
2019-03-25T04:06:10.575Z,80.91
2019-03-25T04:08:40.142Z,81.41
2019-03-25T04:11:09.398Z,81.97
2019-03-25T04:13:38.986Z,81.61
2019-03-25T04:16:08.469Z,81.97
2019-03-25T04:18:37.686Z,81.87
2019-03-25T04:21:07.407Z,81.29
2019-03-25T04:23:37.320Z,82.36
2019-03-25T04:26:06.803Z,82.53
2019-03-25T04:28:36.561Z,82.75
2019-03-25T04:31:05.809Z,82.57
2019-03-25T04:33:35.000Z,82.93
2019-03-25T04:36:06.513Z,83.40
2019-03-25T04:38:36.236Z,83.49
2019-03-25T04:41:08.070Z,83.48
2019-03-25T04:43:41.690Z,82.90
2019-03-25T04:46:11.029Z,83.71
2019-03-25T04:48:40.787Z,83.57
2019-03-25T04:51:10.097Z,84.10
2019-03-25T04:53:39.589Z,83.77
2019-03-25T04:56:09.056Z,83.96
2019-03-25T04:58:38.377Z,83.49
2019-03-25T05:01:09.832Z,83.75
2019-03-25T05:03:39.039Z,83.73
2019-03-25T05:06:08.509Z,83.95
2019-03-25T05:08:37.778Z,83.52
2019-03-25T05:11:06.997Z,83.19
2019-03-25T05:13:36.216Z,83.15
2019-03-25T05:16:05.549Z,82.92
2019-03-25T05:18:35.222Z,82.35
2019-03-25T05:21:04.548Z,82.61
2019-03-25T05:23:34.562Z,82.14
2019-03-25T05:26:03.821Z,82.39
2019-03-25T05:28:33.020Z,82.29
2019-03-25T05:31:02.486Z,82.53
2019-03-25T05:33:31.755Z,82.15
2019-03-25T05:36:01.269Z,82.48
2019-03-25T05:38:30.767Z,82.53
2019-03-25T05:40:59.972Z,82.02
2019-03-25T05:43:29.226Z,82.01
2019-03-25T05:45:58.714Z,81.21
2019-03-25T05:48:27.915Z,81.63
2019-03-25T05:50:57.157Z,81.93
2019-03-25T05:53:26.716Z,81.56
2019-03-25T05:55:55.966Z,81.83
2019-03-25T05:58:25.432Z,81.93
2019-03-25T06:00:54.961Z,81.83
2019-03-25T06:03:24.209Z,82.02
2019-03-25T06:05:53.713Z,81.72
2019-03-25T06:08:23.198Z,81.53
2019-03-25T06:10:52.399Z,81.61
2019-03-25T06:13:21.889Z,80.74
2019-03-25T06:15:51.406Z,81.41
2019-03-25T06:18:21.112Z,81.63
2019-03-25T06:20:50.387Z,81.61
2019-03-25T06:23:19.882Z,81.66
2019-03-25T06:25:49.343Z,81.56
2019-03-25T06:28:18.838Z,81.58
2019-03-25T06:30:48.139Z,81.34
2019-03-25T06:33:17.358Z,81.14
2019-03-25T06:35:46.561Z,80.77
2019-03-25T06:38:16.050Z,80.51
2019-03-25T06:40:45.281Z,79.80
2019-03-25T06:43:14.829Z,80.12
2019-03-25T06:45:44.311Z,79.73
2019-03-25T06:48:13.563Z,79.72
2019-03-25T06:50:43.433Z,78.53
2019-03-25T06:53:12.926Z,78.84
2019-03-25T06:55:42.140Z,78.98
2019-03-25T06:58:11.447Z,78.63
2019-03-25T07:00:40.677Z,79.33
2019-03-25T07:03:10.210Z,78.07
2019-03-25T07:05:39.777Z,78.44
2019-03-25T07:08:09.297Z,77.93
2019-03-25T07:10:39.111Z,78.75
2019-03-25T07:13:08.821Z,78.35
2019-03-25T07:15:38.104Z,78.01
2019-03-25T07:18:07.530Z,78.42
2019-03-25T07:20:37.256Z,77.89
2019-03-25T07:23:06.760Z,78.09
2019-03-25T07:25:36.443Z,78.50
2019-03-25T07:28:06.013Z,78.49
2019-03-25T07:30:35.395Z,78.09
2019-03-25T07:33:04.792Z,78.21
2019-03-25T07:35:34.028Z,77.73
2019-03-25T07:38:03.294Z,78.48
2019-03-25T07:40:32.922Z,78.87
2019-03-25T07:43:02.284Z,78.58
2019-03-25T07:45:31.913Z,78.94
2019-03-25T07:48:01.136Z,78.83
2019-03-25T07:50:30.676Z,78.30
2019-03-25T07:53:00.320Z,78.02
2019-03-25T07:55:30.248Z,78.22
2019-03-25T07:57:59.762Z,78.67
2019-03-25T08:00:29.436Z,77.76
2019-03-25T08:02:58.943Z,77.68
2019-03-25T08:05:28.439Z,78.47
2019-03-25T08:07:58.335Z,78.77
2019-03-25T08:10:37.067Z,79.18
2019-03-25T08:13:06.859Z,78.40
2019-03-25T08:15:36.378Z,77.57
2019-03-25T08:18:06.409Z,78.19
2019-03-25T08:20:35.787Z,77.57
2019-03-25T08:23:05.391Z,77.18
2019-03-25T08:25:34.621Z,77.76
2019-03-25T08:28:04.350Z,76.86
2019-03-25T08:30:33.705Z,78.32
2019-03-25T08:33:02.946Z,79.18
2019-03-25T08:35:32.554Z,79.75
2019-03-25T08:38:01.887Z,80.90
2019-03-25T08:40:31.104Z,81.33
2019-03-25T08:43:00.426Z,81.43
2019-03-25T08:45:29.640Z,81.28
2019-03-25T08:47:59.149Z,81.67
2019-03-25T08:50:28.373Z,82.41
2019-03-25T08:52:57.991Z,82.11
2019-03-25T08:55:27.298Z,81.67
2019-03-25T08:57:56.862Z,81.28
2019-03-25T09:00:26.167Z,81.08
2019-03-25T09:02:56.177Z,80.98
2019-03-25T09:05:26.032Z,80.14
2019-03-25T09:07:55.327Z,78.64
2019-03-25T09:10:24.684Z,79.51
2019-03-25T09:12:54.157Z,79.67
2019-03-25T09:15:23.705Z,78.39
2019-03-25T09:17:53.076Z,78.34
2019-03-25T09:20:22.307Z,78.22
2019-03-25T09:22:51.521Z,78.09
2019-03-25T09:25:20.999Z,79.07
2019-03-25T09:27:50.887Z,77.96
2019-03-25T09:31:16.385Z,77.60
2019-03-25T09:33:46.890Z,78.45
2019-03-25T09:36:18.321Z,79.05
2019-03-25T09:38:47.926Z,79.99
2019-03-25T09:41:17.729Z,80.48
2019-03-25T09:43:47.336Z,80.38
2019-03-25T09:46:17.115Z,81.25
2019-03-25T09:48:47.375Z,82.19
2019-03-25T09:51:16.939Z,81.54
2019-03-25T09:53:46.688Z,82.48
2019-03-25T09:56:16.610Z,81.71
2019-03-25T09:58:45.825Z,81.27
2019-03-25T10:01:15.411Z,82.37
2019-03-25T10:03:45.082Z,81.45
2019-03-25T10:06:14.726Z,80.91
2019-03-25T10:08:44.041Z,80.18
2019-03-25T10:11:13.258Z,80.25
2019-03-25T10:13:42.907Z,79.87
2019-03-25T10:16:15.086Z,81.08
2019-03-25T10:18:44.593Z,82.49
2019-03-25T10:21:14.113Z,81.64
2019-03-25T10:23:43.434Z,81.63
2019-03-25T10:26:12.683Z,80.54
2019-03-25T10:28:48.405Z,81.19
2019-03-25T10:31:13.466Z,80.33
2019-03-25T10:33:43.099Z,79.71
2019-03-25T10:36:12.715Z,80.61
2019-03-25T10:38:41.933Z,79.49
2019-03-25T10:41:11.176Z,80.91
2019-03-25T10:43:40.630Z,79.66
2019-03-25T10:46:10.170Z,79.30
2019-03-25T10:48:39.422Z,78.73
2019-03-25T10:51:08.882Z,79.23
2019-03-25T10:53:38.391Z,79.20
2019-03-25T10:56:07.636Z,79.29
2019-03-25T10:58:36.984Z,78.37
2019-03-25T11:01:09.494Z,78.19
2019-03-25T11:03:38.376Z,79.73
2019-03-25T11:06:08.677Z,79.41
2019-03-25T11:08:38.471Z,79.50
2019-03-25T11:11:07.691Z,80.84
2019-03-25T11:13:36.895Z,81.10
2019-03-25T11:16:06.277Z,80.40
2019-03-25T11:18:35.800Z,81.42
2019-03-25T11:21:05.176Z,80.13
2019-03-25T11:23:35.000Z,80.86
2019-03-25T11:26:04.238Z,81.05
2019-03-25T11:28:34.120Z,80.70
2019-03-25T11:31:03.781Z,80.60
2019-03-25T11:33:33.066Z,80.29
2019-03-25T11:36:02.944Z,78.89
2019-03-25T11:38:32.358Z,77.42
2019-03-25T11:41:01.605Z,78.38
2019-03-25T11:43:31.145Z,76.75
2019-03-25T11:46:01.058Z,77.34
2019-03-25T11:48:30.263Z,77.37
2019-03-25T11:50:59.783Z,77.44
2019-03-25T11:53:29.369Z,78.61
2019-03-25T11:55:58.673Z,79.17
2019-03-25T11:58:28.123Z,75.07
2019-03-25T12:00:57.686Z,74.78
2019-03-25T12:03:27.269Z,76.08
2019-03-25T12:05:56.485Z,75.69
2019-03-25T12:08:25.987Z,75.33
2019-03-25T12:10:55.597Z,74.55
2019-03-25T12:13:25.203Z,73.89
2019-03-25T12:15:54.620Z,70.63
2019-03-25T12:18:23.862Z,71.66
2019-03-25T12:20:53.452Z,71.23
2019-03-25T12:23:26.578Z,72.46
2019-03-25T12:25:53.715Z,71.34
2019-03-25T12:28:23.361Z,69.25
2019-03-25T12:30:52.739Z,70.73
2019-03-25T12:33:22.070Z,69.78
2019-03-25T12:35:51.668Z,71.65
2019-03-25T12:38:20.968Z,68.68
2019-03-25T12:40:50.537Z,69.29
2019-03-25T12:43:20.045Z,63.95
2019-03-25T12:45:49.283Z,64.26
2019-03-25T12:48:18.784Z,63.62
2019-03-25T12:50:48.291Z,62.15
2019-03-25T12:53:18.202Z,60.30
2019-03-25T12:55:47.429Z,62.16
2019-03-25T12:58:17.275Z,63.08
2019-03-25T13:00:47.334Z,65.09
2019-03-25T13:03:16.545Z,69.95
2019-03-25T13:05:45.784Z,70.05
2019-03-25T13:08:15.264Z,71.49
2019-03-25T13:10:44.522Z,71.73
2019-03-25T13:13:14.004Z,73.97
2019-03-25T13:15:43.526Z,71.49
2019-03-25T13:18:12.808Z,70.84
2019-03-25T13:20:42.085Z,70.53
2019-03-25T13:23:11.729Z,67.03
2019-03-25T13:25:40.995Z,67.81
2019-03-25T13:28:10.232Z,68.71
2019-03-25T13:30:39.816Z,71.29
2019-03-25T13:33:09.357Z,72.77
2019-03-25T13:35:38.819Z,72.46
2019-03-25T13:38:08.423Z,72.62
2019-03-25T13:40:38.287Z,72.83
2019-03-25T13:43:08.090Z,74.15
2019-03-25T13:45:37.902Z,72.64
2019-03-25T13:48:07.116Z,72.95
2019-03-25T13:50:36.604Z,70.43
2019-03-25T13:53:05.851Z,70.67
2019-03-25T13:55:35.378Z,70.61
2019-03-25T13:58:04.683Z,68.12
2019-03-25T14:00:39.547Z,66.82
2019-03-25T14:03:08.794Z,66.49
2019-03-25T14:05:38.543Z,66.12
2019-03-25T14:08:08.458Z,65.65
2019-03-25T14:10:37.766Z,66.88
2019-03-25T14:13:07.281Z,66.50
2019-03-25T14:15:36.560Z,66.65
2019-03-25T14:18:06.023Z,66.11
2019-03-25T14:20:35.803Z,66.65
2019-03-25T14:23:05.179Z,67.08
2019-03-25T14:25:34.898Z,65.76
2019-03-25T14:28:04.201Z,64.76
2019-03-25T14:30:33.762Z,65.17
2019-03-25T14:33:03.410Z,67.50
2019-03-25T14:35:33.000Z,71.50
2019-03-25T14:38:02.442Z,74.94
2019-03-25T14:40:31.884Z,77.24
2019-03-25T14:43:01.352Z,77.75
2019-03-25T14:45:30.831Z,77.38
2019-03-25T14:48:00.071Z,76.15
2019-03-25T14:50:29.600Z,77.60
2019-03-25T14:52:59.079Z,75.09
2019-03-25T14:55:28.369Z,75.91
2019-03-25T14:57:57.583Z,75.58
2019-03-25T15:00:26.811Z,76.46
2019-03-25T15:02:56.034Z,74.63
2019-03-25T15:05:25.295Z,74.33
2019-03-25T15:07:54.588Z,74.31
2019-03-25T15:10:24.109Z,73.39
2019-03-25T15:12:53.749Z,74.38
2019-03-25T15:15:23.762Z,72.83
2019-03-25T15:17:53.045Z,73.76
2019-03-25T15:20:22.975Z,73.88
2019-03-25T15:22:52.202Z,73.58
2019-03-25T15:25:21.489Z,74.49
2019-03-25T15:27:50.722Z,74.33
2019-03-25T15:30:20.690Z,74.87
2019-03-25T15:32:50.191Z,75.28
2019-03-25T15:35:19.741Z,75.87
2019-03-25T15:37:49.306Z,76.10
2019-03-25T15:40:18.956Z,77.47
2019-03-25T15:42:48.524Z,76.65
2019-03-25T15:45:19.066Z,74.35
2019-03-25T15:47:48.333Z,74.42
2019-03-25T15:50:18.143Z,74.53
2019-03-25T15:52:47.628Z,74.49
2019-03-25T15:55:16.995Z,74.79
2019-03-25T15:57:46.334Z,74.09
2019-03-25T16:00:18.168Z,73.99
2019-03-25T16:02:49.267Z,74.00
2019-03-25T16:05:18.980Z,74.16
2019-03-25T16:07:48.617Z,74.85
2019-03-25T16:10:19.004Z,74.32
2019-03-25T16:12:48.346Z,74.71
2019-03-25T16:15:56.725Z,75.29
2019-03-25T16:18:34.612Z,75.08
2019-03-25T16:21:05.193Z,74.98
2019-03-25T16:23:36.056Z,75.11
2019-03-25T16:26:06.118Z,75.16
2019-03-25T16:28:35.812Z,75.35
2019-03-25T16:31:05.184Z,75.94
2019-03-25T16:33:37.473Z,76.27
2019-03-25T16:36:06.862Z,76.73
2019-03-25T16:38:38.181Z,76.82
2019-03-25T16:41:07.762Z,75.40
2019-03-25T16:43:37.191Z,75.40
2019-03-25T16:46:06.470Z,76.10
2019-03-25T16:48:36.042Z,75.79
2019-03-25T16:51:05.776Z,75.86
2019-03-25T16:53:37.893Z,75.15
2019-03-25T16:56:06.294Z,74.85
2019-03-25T16:58:35.825Z,75.45
2019-03-25T17:01:09.944Z,74.50
2019-03-25T17:03:36.455Z,74.49
2019-03-25T17:06:07.399Z,74.61
2019-03-25T17:08:36.655Z,74.65
2019-03-25T17:11:06.253Z,74.65
2019-03-25T17:13:35.697Z,74.57
2019-03-25T17:16:04.982Z,74.92
2019-03-25T17:18:34.195Z,74.56
2019-03-25T17:21:03.396Z,73.96
2019-03-25T17:23:33.015Z,74.82
2019-03-25T17:26:03.371Z,74.20
2019-03-25T17:28:32.650Z,74.53
2019-03-25T17:31:03.190Z,74.06
2019-03-25T17:33:32.565Z,73.95
2019-03-25T17:36:02.306Z,74.15
2019-03-25T17:38:32.107Z,73.96
2019-03-25T17:41:01.591Z,73.87
2019-03-25T17:43:30.813Z,74.36
2019-03-25T17:46:00.677Z,74.04
2019-03-25T17:48:30.179Z,74.64
2019-03-25T17:50:59.380Z,74.38
2019-03-25T17:53:28.608Z,74.26
2019-03-25T17:55:57.840Z,74.71
2019-03-25T17:58:27.356Z,74.62
2019-03-25T18:01:32.512Z,74.65
2019-03-25T18:04:01.424Z,74.59
2019-03-25T18:06:30.662Z,74.88
2019-03-25T18:09:00.216Z,75.25
2019-03-25T18:11:29.750Z,74.77
2019-03-25T18:13:58.976Z,75.81
2019-03-25T18:16:28.562Z,75.71
2019-03-25T18:18:58.135Z,75.83
2019-03-25T18:21:27.752Z,75.88
2019-03-25T18:23:59.850Z,76.14
2019-03-25T18:26:28.231Z,76.37
2019-03-25T18:28:57.395Z,76.41
2019-03-25T18:31:26.775Z,76.33
2019-03-25T18:33:56.219Z,76.49
2019-03-25T18:36:25.476Z,76.17
2019-03-25T18:38:54.945Z,76.10
2019-03-25T18:41:24.598Z,76.15
2019-03-25T18:43:54.118Z,75.92
2019-03-25T18:46:23.892Z,75.96
2019-03-25T18:48:53.288Z,75.31
2019-03-25T18:51:25.070Z,75.26
2019-03-25T18:53:55.852Z,75.13
2019-03-25T18:56:25.206Z,74.33
2019-03-25T18:58:55.017Z,74.36
2019-03-25T19:01:24.907Z,73.98
2019-03-25T19:03:54.256Z,73.55
2019-03-25T19:06:24.620Z,74.07
2019-03-25T19:08:54.078Z,74.06
2019-03-25T19:11:31.108Z,74.02
2019-03-25T19:13:54.730Z,74.13
2019-03-25T19:16:24.255Z,74.12
2019-03-25T19:18:53.484Z,74.39
2019-03-25T19:21:23.039Z,74.72
2019-03-25T19:23:52.520Z,74.50
2019-03-25T19:26:21.976Z,74.66
2019-03-25T19:28:51.516Z,75.03
2019-03-25T19:31:20.698Z,75.29
2019-03-25T19:33:49.931Z,75.63
2019-03-25T19:36:19.898Z,75.67
2019-03-25T19:38:50.596Z,75.74
2019-03-25T19:41:31.498Z,76.14
2019-03-25T19:43:50.862Z,76.00
2019-03-25T19:46:20.089Z,76.01
2019-03-25T19:48:49.294Z,76.21
2019-03-25T19:51:18.622Z,76.24
2019-03-25T19:53:48.075Z,76.09
2019-03-25T19:56:17.541Z,76.18
2019-03-25T19:58:47.014Z,76.08
2019-03-25T20:01:16.278Z,76.36
2019-03-25T20:03:45.586Z,76.38
2019-03-25T20:06:25.752Z,76.33
2019-03-25T20:08:46.411Z,76.17
2019-03-25T20:11:17.140Z,76.09
2019-03-25T20:14:07.145Z,76.17
2019-03-25T20:16:36.868Z,76.29
2019-03-25T20:19:06.327Z,76.15
2019-03-25T20:21:35.802Z,76.47
2019-03-25T20:24:05.501Z,76.88
2019-03-25T20:26:36.061Z,76.77
2019-03-25T20:29:07.762Z,76.86
2019-03-25T20:31:37.044Z,77.05
2019-03-25T20:34:11.275Z,77.02
2019-03-25T20:36:37.406Z,77.07
2019-03-25T20:39:10.332Z,77.04
2019-03-25T20:41:39.654Z,77.29
2019-03-25T20:44:09.259Z,77.38
2019-03-25T20:46:38.782Z,77.38
2019-03-25T20:49:08.344Z,77.51
2019-03-25T20:51:37.671Z,77.63
2019-03-25T20:54:06.980Z,77.74
2019-03-25T20:56:36.081Z,77.75
2019-03-25T20:59:05.716Z,77.90
2019-03-25T21:01:35.169Z,77.94
2019-03-25T21:04:04.709Z,78.11
2019-03-25T21:06:34.475Z,78.19
2019-03-25T21:09:04.006Z,78.56
2019-03-25T21:11:33.613Z,78.74
2019-03-25T21:14:03.235Z,78.87
2019-03-25T21:16:32.771Z,79.15
2019-03-25T21:19:02.336Z,79.08
2019-03-25T21:21:32.820Z,79.03
2019-03-25T21:24:02.031Z,79.44
2019-03-25T21:26:31.596Z,79.23
2019-03-25T21:29:01.189Z,79.36
2019-03-25T21:31:30.968Z,79.26
2019-03-25T21:34:00.275Z,79.01
2019-03-25T21:36:29.860Z,78.89
2019-03-25T21:38:59.681Z,79.01
2019-03-25T21:41:29.211Z,79.32
2019-03-25T21:43:58.681Z,79.12
2019-03-25T21:46:28.241Z,79.10
2019-03-25T21:48:57.817Z,78.81
2019-03-25T21:51:29.438Z,79.11
2019-03-25T21:53:58.720Z,78.93
2019-03-25T21:56:28.011Z,79.10
2019-03-25T21:59:00.272Z,79.73
2019-03-25T22:01:28.305Z,79.60
2019-03-25T22:03:58.113Z,79.92
2019-03-25T22:06:27.739Z,79.58
2019-03-25T22:08:57.238Z,79.72
2019-03-25T22:11:26.828Z,79.76
2019-03-25T22:13:56.290Z,79.62
2019-03-25T22:16:25.607Z,79.46
2019-03-25T22:18:55.120Z,79.71
2019-03-25T22:21:24.381Z,79.61
2019-03-25T22:23:54.012Z,79.66
2019-03-25T22:26:23.809Z,79.91
2019-03-25T22:28:54.668Z,79.61
2019-03-25T22:31:24.216Z,79.47
2019-03-25T22:33:53.773Z,79.50
2019-03-25T22:36:23.529Z,79.79
2019-03-25T22:38:52.775Z,79.95
2019-03-25T22:41:22.838Z,79.79
2019-03-25T22:43:52.597Z,80.16
2019-03-25T22:46:21.857Z,80.49
2019-03-25T22:48:51.091Z,80.66
2019-03-25T22:51:23.555Z,81.01
2019-03-25T22:53:53.765Z,80.94
2019-03-25T22:56:22.982Z,80.72
2019-03-25T22:58:56.301Z,80.97
2019-03-25T23:01:26.014Z,81.32
2019-03-25T23:03:55.568Z,80.83
2019-03-25T23:06:24.805Z,81.00
2019-03-25T23:08:54.563Z,81.13
2019-03-25T23:11:24.067Z,81.54
2019-03-25T23:13:53.592Z,81.86
2019-03-25T23:16:22.869Z,81.33
2019-03-25T23:18:52.194Z,80.86
2019-03-25T23:21:21.680Z,81.02
2019-03-25T23:23:51.425Z,81.04
2019-03-25T23:26:22.410Z,80.54
2019-03-25T23:28:52.125Z,80.46
2019-03-25T23:31:21.602Z,80.67
2019-03-25T23:33:52.561Z,80.80
2019-03-25T23:36:22.256Z,80.99
2019-03-25T23:38:51.507Z,80.65
2019-03-25T23:41:20.740Z,81.00
2019-03-25T23:43:50.277Z,81.16
2019-03-25T23:46:19.501Z,81.29
2019-03-25T23:48:49.235Z,81.07
2019-03-25T23:51:18.457Z,80.69
2019-03-25T23:53:48.303Z,81.54
2019-03-25T23:56:18.903Z,81.24
2019-03-25T23:58:48.573Z,80.97
